Google Maps JavaScript API Example
Pilot Flight Report # 95430 Submitted by : AST195 on 2021-09-17
Date: 2021-09-17Aircraft: Airbus A320-200
Flight No.: AST0752Distance (Nm): 601.70
Departure: KORD - Chicago-O'Hare InternationalDestination: KOKC - Will Rogers World
 TimeFuelWeightSpeeds  
Out (Taxi)1750 Flight RulesIFR
Off (Takeoff)1750 Flight Level
On (Landing)2008 VSTD
In (Ramp)2008 ZFW
Flight2.30  -  2:186700  Pax0
Block2.30  -  2:186700  Cargo0
Departure WeatherKORD 170051Z 12007KT 10SM CLR 23/13 A3004 RMK AO2 SLP171 T02280128
Destination WeatherKOKC 170052Z 15006KT 10SM FEW065 26/17 A2990 RMK AO2 SLP111 T02610167
Flight CommentsGate 57